KTOP

Philip Billard Municipal Airport

Topeka, Kansas, USA
METAR KTOP 200053Z 17011KT 10SM CLR 08/M02 A2978 RMK AO2 SLP087 T00781017
Observed Flight Rules
Jan-20 @ 00:53 UTC (30 minutes ago) Visual Flight Rules
Wind Visibility Clouds
170° at 11 knots 10 miles
  • Clear skies
Temperatures Readings
Current 8°C / 46°F
Dewpoint -2°C / 28°F
Humidity 50%
Altimeter 29.78" Hg
Pressure 1008.7 hPa
Elevation 268
METAR KTOP 200053Z 17011KT 10SM CLR 08/M02 A2978 RMK AO2 SLP087 T00781017
Observed Flight Rules
Jan-20 @ 00:53 UTC
(30 minutes ago)
VFR
Wind Visibility
170° at 11 knots 10 miles
Clouds
  • Clear skies
Temperature Dewpoint
8°C / 46°F -2°C / 28°F
Humidity Altimeter Pressure
50% 29.78" Hg 1008.7 hPa